Latest Weather Observations for Birdsville

IDQ60801

Issued at 11:22 pm EST Monday 25 January 2021 (issued every 10 minutes, with the page automatically refreshed every 10 minutes)

About weather observations | Map of weather stations | Latest weather observations for QLD | Other Formats
Station Details ID: 038026 Name: BIRDSVILLE AIRPORT Lat: -25.90 Lon: 139.35 Height: 46.6 m
Data from the previous 72 hours. | See also: Recent months at Birdsville
Date/Time
EST
Temp
°C
App
Temp
°C
Dew
Point
°C
Rel
Hum
%
Delta-T
°C
Wind Press
QNH
hPa
Press
MSL
hPa
Rain since
9am
mm
Dir  Spd
km/h
Gust
km/h
Spd
kts
Gust
kts
25/11:00pm 31.6 33.4 21.2 54 7.0 NNE 13 15 7 8 1000.6 1000.2 0.2
25/10:30pm 32.3 33.2 20.9 51 7.6 NNE 17 20 9 11 1000.8 1000.4 0.2
25/10:00pm 32.3 35.6 21.5 53 7.3 NNW 6 15 3 8 1000.9 1000.5 0.2
25/09:30pm 32.8 36.3 20.3 47 8.3 N 2 13 1 7 1000.6 1000.2 0.2
25/09:00pm 32.4 35.0 21.9 54 7.2 NNE 11 13 6 7 1000.2 999.8 0.2
25/08:30pm 31.9 35.2 22.6 58 6.4 N 9 11 5 6 1000.2 999.8 0.2
25/08:00pm 32.5 33.1 21.4 52 7.5 N 20 24 11 13 999.9 999.5 0.2
25/07:30pm 33.0 36.3 21.8 51 7.6 - 7 24 4 13 1000.2 999.8 0.2
25/07:00pm 32.5 31.6 21.4 52 7.5 NE 28 32 15 17 999.8 999.4 0.0
25/06:41pm 37.3 35.6 17.3 30 13.0 NW 22 57 12 31 999.2 998.8 0.0
25/06:30pm 38.5 37.7 16.2 27 14.3 NNE 15 39 8 21 999.0 998.6 0.0
25/06:00pm 38.9 37.9 16.5 26 14.5 NE 17 24 9 13 998.9 998.5 0.0
25/05:30pm 39.2 37.3 16.8 27 14.5 NNE 22 33 12 18 998.8 998.4 0.0
25/05:00pm 39.4 37.0 16.3 25 14.9 NNE 24 35 13 19 999.0 998.6 0.0
25/04:30pm 39.4 37.7 16.3 25 14.9 N 20 37 11 20 999.2 998.8 0.0
25/04:00pm 39.1 38.9 16.7 27 14.5 N 13 22 7 12 999.5 999.1 0.0
25/03:30pm 40.3 39.1 17.1 25 15.1 NNE 19 32 10 17 999.9 999.5 0.0
25/03:00pm 39.4 39.2 17.5 27 14.4 NNE 15 30 8 16 1000.5 1000.1 0.0
25/02:30pm 39.4 38.5 16.9 26 14.6 N 17 28 9 15 1001.0 1000.6 0.0
25/02:00pm 38.4 37.6 17.2 28 13.8 NNW 17 26 9 14 1001.5 1001.1 0.0
25/01:30pm 37.2 37.2 17.2 30 12.9 N 13 22 7 12 1002.2 1001.8 0.0
25/01:00pm 35.7 35.2 17.9 35 11.6 NNE 17 20 9 11 1002.7 1002.3 0.0
25/12:30pm 35.4 35.2 19.3 38 10.7 N 19 24 10 13 1003.1 1002.7 0.0
25/12:00pm 35.7 35.2 18.7 36 11.2 N 19 28 10 15 1003.4 1003.0 0.0
25/11:30am 35.2 34.5 18.7 37 10.8 NNE 20 28 11 15 1003.8 1003.4 0.0
25/11:00am 34.3 33.7 18.8 40 10.2 NNE 20 26 11 14 1004.1 1003.7 0.0
25/10:30am 34.5 34.3 18.5 38 10.5 NNE 17 26 9 14 1004.4 1004.0 0.0
25/10:00am 33.9 34.8 18.4 40 10.1 ESE 11 19 6 10 1004.6 1004.2 0.0
25/09:30am 32.4 34.8 19.6 46 8.4 SSE 6 13 3 7 1004.8 1004.4 0.0
25/09:00am 31.3 35.0 19.9 50 7.5 CALM 0 0 0 0 1005.0 1004.6 0.0
25/08:30am 31.7 35.1 19.3 47 8.1 CALM 0 0 0 0 1005.2 1004.8 0.0
25/08:00am 31.3 34.6 19.0 48 8.0 CALM 0 0 0 0 1005.3 1004.9 0.0
25/07:30am 31.3 33.0 19.3 49 7.9 SW 9 13 5 7 1005.3 1004.9 0.0
25/07:00am 30.7 32.3 19.1 50 7.6 SW 9 11 5 6 1005.1 1004.7 0.0
25/06:30am 30.7 33.6 19.1 50 7.6 SSE 2 7 1 4 1004.7 1004.3 0.0
25/06:00am 31.0 34.3 19.0 48 7.8 CALM 0 0 0 0 1004.2 1003.8 0.0
25/05:30am 30.9 34.3 19.3 50 7.6 CALM 0 0 0 0 1003.6 1003.2 0.0
25/05:00am 30.8 34.1 19.2 50 7.6 CALM 0 0 0 0 1003.4 1003.0 0.0
25/04:30am 30.9 34.1 18.9 48 7.8 CALM 0 0 0 0 1003.3 1002.9 0.0
25/04:00am 31.1 32.7 19.1 48 7.9 WSW 9 15 5 8 1003.1 1002.7 0.0
25/03:30am 31.6 32.0 18.9 47 8.3 WSW 15 17 8 9 1003.0 1002.6 0.0
25/03:00am 31.6 34.8 18.9 47 8.3 CALM 0 9 0 5 1003.2 1002.8 0.0
25/02:30am 31.8 32.8 19.4 47 8.1 ENE 13 17 7 9 1002.9 1002.5 0.0
25/02:00am 31.5 32.3 19.8 49 7.7 ENE 15 19 8 10 1003.3 1002.9 0.0
25/01:30am 31.2 30.9 19.2 48 7.8 ESE 19 24 10 13 1003.6 1003.2 0.0
25/01:00am 31.7 35.0 19.0 47 8.3 CALM 0 0 0 0 1003.3 1002.9 0.0
25/12:30am 31.6 34.9 19.2 47 8.1 CALM 0 0 0 0 1003.2 1002.8 0.0
25/12:00am 31.6 33.0 19.6 49 7.9 SW 11 19 6 10 1003.5 1003.1 0.0
 
Date/Time
EST
Temp
°C
App
Temp
°C
Dew
Point
°C
Rel
Hum
%
Delta-T
°C
Wind Press
QNH
hPa
Press
MSL
hPa
Rain since
9am
mm
Dir  Spd
km/h
Gust
km/h
Spd
kts
Gust
kts
24/11:30pm 31.7 31.7 19.7 49 7.9 SSW 19 26 10 14 1004.1 1003.7 0.0
24/11:00pm 32.5 32.1 19.0 44 8.9 SSW 19 24 10 13 1004.0 1003.6 0.0
24/10:30pm 33.2 33.0 18.6 42 9.5 WSW 17 20 9 11 1003.8 1003.4 0.0
24/10:00pm 33.5 36.3 18.0 39 10.1 CALM 0 0 0 0 1004.0 1003.6 0.0
24/09:30pm 33.6 34.4 18.1 39 10.1 N 11 15 6 8 1003.8 1003.4 0.0
24/09:00pm 33.7 34.3 18.6 40 9.9 N 13 17 7 9 1003.9 1003.5 0.0
24/08:30pm 33.4 33.9 18.3 40 9.8 NNW 13 15 7 8 1003.7 1003.3 0.0
24/08:00pm 33.4 33.1 18.3 40 9.8 N 17 20 9 11 1004.0 1003.6 0.0
24/07:30pm 33.8 31.8 19.1 42 9.7 NNW 28 32 15 17 1004.0 1003.6 0.0
24/07:00pm 34.4 29.6 18.4 38 10.5 N 41 50 22 27 1003.2 1002.8 0.0
24/06:50pm 34.9 30.5 17.6 35 11.2 N 37 48 20 26 1003.1 1002.7 0.0
24/06:30pm 35.6 32.8 18.2 35 11.4 NW 30 39 16 21 1001.9 1001.5 0.0
24/06:00pm 35.5 31.0 19.0 37 10.9 NW 41 50 22 27 1001.4 1001.0 0.0
24/05:50pm 36.6 34.0 17.7 32 12.3 WNW 28 54 15 29 1001.5 1001.1 0.0
24/05:30pm 40.7 39.3 13.3 20 17.0 N 13 20 7 11 1000.3 999.9 0.0
24/05:00pm 40.8 38.4 12.6 19 17.4 NNW 17 20 9 11 1000.3 999.9 0.0
24/04:30pm 40.8 37.6 14.2 21 16.7 N 24 32 13 17 1000.2 999.8 0.0
24/04:00pm 41.3 37.7 13.0 19 17.6 NNW 24 32 13 17 1000.6 1000.2 0.0
24/03:30pm 41.5 36.4 13.2 19 17.6 NNW 32 41 17 22 1001.0 1000.6 0.0
24/03:00pm 41.5 35.6 14.7 20 17.1 N 39 50 21 27 1001.2 1000.8 0.0
24/02:58pm 41.5 34.8 14.7 20 17.0 N 43 59 23 32 1001.3 1000.9 0.0
24/02:36pm 41.5 33.5 14.7 20 17.0 N 50 63 27 34 1001.3 1000.9 0.0
24/02:30pm 42.4 37.2 15.5 21 17.3 N 37 61 20 33 1001.3 1000.9 0.0
24/02:28pm 42.1 37.5 15.2 20 17.2 N 33 56 18 30 1001.3 1000.9 0.0
24/02:13pm 42.7 39.5 14.2 19 18.0 NNW 24 41 13 22 1001.6 1001.2 0.0
24/02:00pm 43.1 41.3 14.5 19 18.3 N 17 26 9 14 1001.9 1001.5 0.0
24/01:30pm 42.7 40.2 14.2 19 18.0 NW 20 35 11 19 1002.6 1002.2 0.0
24/01:00pm 42.2 40.9 13.8 19 17.9 NNW 13 26 7 14 1003.1 1002.7 0.0
24/12:30pm 42.3 40.0 14.6 19 17.6 NNW 20 33 11 18 1003.8 1003.4 0.0
24/12:12pm 41.9 39.4 15.1 21 17.1 WNW 22 61 12 33 1004.0 1003.6 0.0
24/12:00pm 41.2 37.6 15.2 21 16.6 NW 28 43 15 23 1004.4 1004.0 0.0
24/11:30am 41.2 38.5 14.5 21 16.9 NNW 22 33 12 18 1004.6 1004.2 0.0
24/11:00am 40.7 37.8 14.1 21 16.7 NNW 22 35 12 19 1005.0 1004.6 0.0
24/10:30am 40.1 36.5 14.3 22 16.2 NNW 26 35 14 19 1005.3 1004.9 0.0
24/10:00am 39.6 37.3 14.6 23 15.8 N 20 30 11 16 1005.4 1005.0 0.0
24/09:30am 38.3 35.5 14.2 24 15.0 N 22 32 12 17 1005.4 1005.0 0.0
24/09:00am 37.1 33.0 13.8 25 14.4 N 28 37 15 20 1005.4 1005.0 0.0
24/08:30am 37.0 33.4 14.3 26 14.1 NNE 26 35 14 19 1005.3 1004.9 0.0
24/08:00am 35.2 31.3 13.4 27 13.3 NNE 26 30 14 16 1005.1 1004.7 0.0
24/07:30am 34.0 31.1 12.9 28 12.7 NE 20 24 11 13 1005.0 1004.6 0.0
24/07:00am 32.9 29.9 12.5 29 12.2 NNE 20 24 11 13 1004.6 1004.2 0.0
24/06:30am 31.6 28.7 10.9 28 12.0 NNE 17 19 9 10 1004.4 1004.0 0.0
24/06:00am 31.4 27.7 10.2 27 12.2 NNE 20 22 11 12 1004.2 1003.8 0.0
24/05:30am 32.0 28.4 10.7 27 12.3 NE 20 24 11 13 1003.8 1003.4 0.0
24/05:00am 31.7 29.0 10.4 27 12.3 NE 15 17 8 9 1003.4 1003.0 0.0
24/04:30am 32.6 29.6 10.6 26 12.7 NE 17 20 9 11 1003.2 1002.8 0.0
24/04:00am 32.8 29.1 10.2 25 13.1 NE 20 22 11 12 1003.2 1002.8 0.0
24/03:30am 31.0 28.5 4.7 19 13.7 E 7 13 4 7 1003.1 1002.7 0.0
24/03:00am 31.5 29.9 4.3 18 14.2 ESE 2 11 1 6 1003.3 1002.9 0.0
24/02:30am 32.3 31.2 5.0 18 14.4 CALM 0 7 0 4 1003.3 1002.9 0.0
24/02:00am 33.1 31.8 3.9 16 15.3 CALM 0 0 0 0 1003.5 1003.1 0.0
24/01:30am 34.3 30.9 4.0 15 15.9 ESE 11 15 6 8 1003.7 1003.3 0.0
24/01:00am 34.9 31.0 3.5 14 16.5 ESE 13 17 7 9 1004.1 1003.7 0.0
24/12:30am 35.8 31.8 3.1 13 17.1 ESE 13 15 7 8 1004.4 1004.0 0.0
24/12:00am 36.0 31.5 4.3 14 16.9 ESE 17 20 9 11 1004.5 1004.1 0.0
 
Date/Time
EST
Temp
°C
App
Temp
°C
Dew
Point
°C
Rel
Hum
%
Delta-T
°C
Wind Press
QNH
hPa
Press
MSL
hPa
Rain since
9am
mm
Dir  Spd
km/h
Gust
km/h
Spd
kts
Gust
kts
23/11:30pm 34.5 31.5 4.1 15 16.0 ESE 9 11 5 6 1004.7 1004.3 0.0
23/11:00pm 34.6 30.3 3.2 14 16.4 SE 15 19 8 10 1004.7 1004.3 0.0
23/10:30pm 34.7 31.5 3.3 14 16.4 ESE 9 11 5 6 1004.6 1004.2 0.0
23/10:00pm 35.1 33.7 3.6 14 16.6 CALM 0 0 0 0 1004.5 1004.1 0.0
23/09:30pm 35.9 34.4 3.2 13 17.1 CALM 0 0 0 0 1004.1 1003.7 0.0
23/09:00pm 37.2 35.7 3.1 12 18.0 CALM 0 0 0 0 1003.9 1003.5 0.0
23/08:30pm 37.6 36.2 3.4 12 18.1 CALM 0 0 0 0 1003.5 1003.1 0.0
23/08:00pm 39.3 37.1 3.4 11 19.3 SE 4 13 2 7 1003.3 1002.9 0.0
23/07:30pm 40.8 37.6 3.2 10 20.2 SE 9 13 5 7 1003.1 1002.7 0.0
23/07:00pm 41.9 37.1 2.6 9 21.1 SE 17 22 9 12 1002.9 1002.5 0.0
23/06:30pm 42.2 37.8 2.8 9 21.2 S 15 20 8 11 1002.6 1002.2 0.0
23/06:00pm 42.4 39.2 2.9 9 21.4 SSE 9 11 5 6 1002.5 1002.1 0.0
23/05:30pm 42.4 37.8 1.3 8 21.7 SSE 15 24 8 13 1002.3 1001.9 0.0
23/05:00pm 43.0 38.8 1.7 8 22.0 S 13 26 7 14 1002.4 1002.0 0.0
23/04:30pm 43.7 39.6 2.2 8 22.3 SW 13 19 7 10 1002.5 1002.1 0.0
23/04:00pm 42.8 38.5 3.2 9 21.6 W 15 28 8 15 1002.7 1002.3 0.0
23/03:30pm 43.2 40.2 1.9 8 22.1 SSW 7 15 4 8 1003.2 1002.8 0.0
23/03:00pm 42.3 39.0 4.3 10 21.0 NNW 11 20 6 11 1003.5 1003.1 0.0
23/02:30pm 42.3 37.9 2.8 9 21.3 NNW 15 26 8 14 1003.7 1003.3 0.0
23/02:00pm 42.9 38.2 3.3 9 21.6 NNW 17 26 9 14 1004.1 1003.7 0.0
23/01:30pm 42.1 37.7 2.7 9 21.2 W 15 24 8 13 1004.7 1004.3 0.0
23/01:00pm 41.4 38.1 2.2 9 20.9 E 9 24 5 13 1005.2 1004.8 0.0
23/12:30pm 41.9 37.9 2.6 9 21.1 ENE 13 24 7 13 1005.6 1005.2 0.0
23/12:00pm 40.5 36.7 1.5 9 20.5 NNW 11 19 6 10 1006.0 1005.6 0.0
23/11:30am 40.6 35.0 0.0 8 20.8 N 19 32 10 17 1006.4 1006.0 0.0
23/11:00am 40.3 35.5 5.4 12 19.4 NNW 20 28 11 15 1006.7 1006.3 0.0
23/10:30am 40.0 36.6 11.2 18 17.3 N 20 26 11 14 1007.0 1006.6 0.0
23/10:00am 37.9 38.0 10.3 19 16.3 CALM 0 0 0 0 1007.0 1006.6 0.0
23/09:30am 35.6 33.3 7.6 18 15.7 - 9 20 5 11 1007.3 1006.9 0.0
23/09:00am 33.6 28.6 3.4 15 15.7 NNE 19 22 10 12 1007.5 1007.1 0.0
23/08:30am 32.2 30.3 0.3 13 15.6 CALM 0 0 0 0 1007.1 1006.7 0.0
23/08:00am 30.1 27.9 -1.3 13 14.7 CALM 0 0 0 0 1007.2 1006.8 0.0
23/07:30am 27.5 25.1 -3.3 13 13.6 CALM 0 0 0 0 1007.0 1006.6 0.0
23/07:00am 26.1 23.7 -3.5 14 12.9 CALM 0 0 0 0 1006.6 1006.2 0.0
23/06:30am 24.3 21.9 -3.1 16 11.8 CALM 0 0 0 0 1006.5 1006.1 0.0
23/06:00am 24.7 22.4 -2.0 17 11.9 CALM 0 0 0 0 1006.1 1005.7 0.0
23/05:30am 24.8 22.5 -2.7 16 12.0 CALM 0 0 0 0 1005.9 1005.5 0.0
23/05:00am 24.6 22.1 -3.7 15 12.2 CALM 0 0 0 0 1005.9 1005.5 0.0
23/04:30am 24.7 22.3 -2.8 16 12.0 CALM 0 0 0 0 1005.9 1005.5 0.0
23/04:00am 25.2 22.7 -4.2 14 12.6 CALM 0 0 0 0 1005.7 1005.3 0.0
23/03:30am 25.3 22.8 -4.1 14 12.6 CALM 0 0 0 0 1005.5 1005.1 0.0
23/03:00am 25.3 22.7 -5.1 13 12.8 CALM 0 0 0 0 1005.4 1005.0 0.0
23/02:30am 26.4 23.8 -5.3 12 13.4 CALM 0 0 0 0 1005.5 1005.1 0.0
23/02:00am 27.5 24.8 -5.6 11 14.1 CALM 0 0 0 0 1005.5 1005.1 0.0
23/01:30am 27.9 25.3 -5.2 11 14.2 CALM 0 0 0 0 1005.7 1005.3 0.0
23/01:00am 28.9 26.3 -4.5 11 14.7 CALM 0 0 0 0 1005.9 1005.5 0.0
23/12:30am 29.6 27.0 -5.2 10 15.2 CALM 0 0 0 0 1006.0 1005.6 0.0
23/12:00am 30.1 27.5 -4.8 10 15.4 CALM 0 0 0 0 1006.1 1005.7 0.0
 
Date/Time
EST
Temp
°C
App
Temp
°C
Dew
Point
°C
Rel
Hum
%
Delta-T
°C
Wind Press
QNH
hPa
Press
MSL
hPa
Rain since
9am
mm
Dir  Spd
km/h
Gust
km/h
Spd
kts
Gust
kts
22/11:30pm 30.7 28.2 -4.4 10 15.6 CALM 0 0 0 0 1006.0 1005.6 0.0

Other formats

Comma delimited format used in spreadsheet applications
http://www.bom.gov.au/fwo/IDQ60801/IDQ60801.95482.axf

JavaScript Object Notation format (JSON) in row-major order
http://www.bom.gov.au/fwo/IDQ60801/IDQ60801.95482.json

Data quality

Most of these data are generated automatically and are frequently updated. Quality checks on data are not normally performed. It is possible for incorrect values to appear. Refer to information at About Latest Weather Observations and please check the disclaimer before using these data.